sensor_id;sensor_type;location;lat;lon;timestamp;temperature;humidity
22996;DHT22;11664;49.774;8.650;2024-01-30T00:00:04;3.50;99.90
22996;DHT22;11664;49.774;8.650;2024-01-30T00:02:45;3.60;99.90
22996;DHT22;11664;49.774;8.650;2024-01-30T00:05:17;3.60;99.90
22996;DHT22;11664;49.774;8.650;2024-01-30T00:07:45;3.50;99.90
22996;DHT22;11664;49.774;8.650;2024-01-30T00:10:17;3.40;99.90
22996;DHT22;11664;49.774;8.650;2024-01-30T00:12:55;3.50;99.90
22996;DHT22;11664;49.774;8.650;2024-01-30T00:15:26;3.70;99.90
22996;DHT22;11664;49.774;8.650;2024-01-30T00:17:58;3.70;99.90
22996;DHT22;11664;49.774;8.650;2024-01-30T00:20:30;4.00;99.90
22996;DHT22;11664;49.774;8.650;2024-01-30T00:22:58;3.90;99.90
22996;DHT22;11664;49.774;8.650;2024-01-30T00:25:27;3.70;99.90
22996;DHT22;11664;49.774;8.650;2024-01-30T00:27:53;3.60;99.90
22996;DHT22;11664;49.774;8.650;2024-01-30T00:33:47;3.40;99.90
22996;DHT22;11664;49.774;8.650;2024-01-30T00:36:21;3.30;99.90
22996;DHT22;11664;49.774;8.650;2024-01-30T00:38:59;3.40;99.90
22996;DHT22;11664;49.774;8.650;2024-01-30T00:41:43;3.20;99.90
22996;DHT22;11664;49.774;8.650;2024-01-30T00:44:21;3.10;99.90
22996;DHT22;11664;49.774;8.650;2024-01-30T00:46:47;3.10;99.90
22996;DHT22;11664;49.774;8.650;2024-01-30T00:49:12;3.10;99.90
22996;DHT22;11664;49.774;8.650;2024-01-30T00:51:38;3.20;99.90
22996;DHT22;11664;49.774;8.650;2024-01-30T00:54:10;3.20;99.90
22996;DHT22;11664;49.774;8.650;2024-01-30T00:56:44;3.30;99.90
22996;DHT22;11664;49.774;8.650;2024-01-30T00:59:13;3.40;99.90
22996;DHT22;11664;49.774;8.650;2024-01-30T01:01:57;3.30;99.90
22996;DHT22;11664;49.774;8.650;2024-01-30T01:04:26;3.00;99.90
22996;DHT22;11664;49.774;8.650;2024-01-30T01:06:58;2.90;99.90
22996;DHT22;11664;49.774;8.650;2024-01-30T01:09:26;2.90;99.90
22996;DHT22;11664;49.774;8.650;2024-01-30T01:12:02;2.90;99.90
22996;DHT22;11664;49.774;8.650;2024-01-30T01:14:36;2.90;99.90
22996;DHT22;11664;49.774;8.650;2024-01-30T01:17:05;2.90;99.90
22996;DHT22;11664;49.774;8.650;2024-01-30T01:19:33;2.70;99.90
22996;DHT22;11664;49.774;8.650;2024-01-30T01:21:59;2.70;99.90
22996;DHT22;11664;49.774;8.650;2024-01-30T01:24:27;2.60;99.90
22996;DHT22;11664;49.774;8.650;2024-01-30T01:26:59;2.60;99.90
22996;DHT22;11664;49.774;8.650;2024-01-30T01:29:28;2.70;99.90
22996;DHT22;11664;49.774;8.650;2024-01-30T01:31:59;2.60;99.90
22996;DHT22;11664;49.774;8.650;2024-01-30T01:34:33;2.70;99.90
22996;DHT22;11664;49.774;8.650;2024-01-30T01:37:02;2.70;99.90
22996;DHT22;11664;49.774;8.650;2024-01-30T01:39:34;2.60;99.90
22996;DHT22;11664;49.774;8.650;2024-01-30T01:41:59;2.60;99.90
22996;DHT22;11664;49.774;8.650;2024-01-30T01:44:34;2.60;99.90
22996;DHT22;11664;49.774;8.650;2024-01-30T01:46:59;2.50;99.90
22996;DHT22;11664;49.774;8.650;2024-01-30T01:49:31;2.50;99.90
22996;DHT22;11664;49.774;8.650;2024-01-30T01:52:03;2.40;99.90
22996;DHT22;11664;49.774;8.650;2024-01-30T01:54:29;2.50;99.90
22996;DHT22;11664;49.774;8.650;2024-01-30T01:57:03;2.40;99.90
22996;DHT22;11664;49.774;8.650;2024-01-30T01:59:45;2.40;99.90
22996;DHT22;11664;49.774;8.650;2024-01-30T02:02:11;2.40;99.90
22996;DHT22;11664;49.774;8.650;2024-01-30T02:04:38;2.40;99.90
22996;DHT22;11664;49.774;8.650;2024-01-30T02:07:03;2.40;99.90
22996;DHT22;11664;49.774;8.650;2024-01-30T02:09:29;2.50;99.90
22996;DHT22;11664;49.774;8.650;2024-01-30T02:11:55;2.50;99.90
22996;DHT22;11664;49.774;8.650;2024-01-30T02:14:20;2.50;99.90
22996;DHT22;11664;49.774;8.650;2024-01-30T02:16:55;2.50;99.90
22996;DHT22;11664;49.774;8.650;2024-01-30T02:19:23;2.40;99.90
22996;DHT22;11664;49.774;8.650;2024-01-30T02:21:49;2.30;99.90
22996;DHT22;11664;49.774;8.650;2024-01-30T02:24:15;2.30;99.90
22996;DHT22;11664;49.774;8.650;2024-01-30T02:26:41;2.30;99.90
22996;DHT22;11664;49.774;8.650;2024-01-30T02:29:09;2.30;99.90
22996;DHT22;11664;49.774;8.650;2024-01-30T02:31:53;2.10;99.90
22996;DHT22;11664;49.774;8.650;2024-01-30T02:34:23;2.20;99.90
22996;DHT22;11664;49.774;8.650;2024-01-30T02:36:55;2.10;99.90
22996;DHT22;11664;49.774;8.650;2024-01-30T02:39:23;2.10;99.90
22996;DHT22;11664;49.774;8.650;2024-01-30T02:41:55;1.90;99.90
22996;DHT22;11664;49.774;8.650;2024-01-30T02:44:21;2.00;99.90
22996;DHT22;11664;49.774;8.650;2024-01-30T02:46:47;1.90;99.90
22996;DHT22;11664;49.774;8.650;2024-01-30T02:49:12;2.00;99.90
22996;DHT22;11664;49.774;8.650;2024-01-30T02:51:41;2.00;99.90
22996;DHT22;11664;49.774;8.650;2024-01-30T02:54:09;1.90;99.90
22996;DHT22;11664;49.774;8.650;2024-01-30T02:56:35;1.90;99.90
22996;DHT22;11664;49.774;8.650;2024-01-30T02:59:00;1.90;99.90
22996;DHT22;11664;49.774;8.650;2024-01-30T03:01:26;1.80;99.90
22996;DHT22;11664;49.774;8.650;2024-01-30T03:07:07;1.80;99.90
22996;DHT22;11664;49.774;8.650;2024-01-30T03:09:33;1.90;99.90
22996;DHT22;11664;49.774;8.650;2024-01-30T03:12:13;1.90;99.90
22996;DHT22;11664;49.774;8.650;2024-01-30T03:14:39;1.90;99.90
22996;DHT22;11664;49.774;8.650;2024-01-30T03:17:11;1.90;99.90
22996;DHT22;11664;49.774;8.650;2024-01-30T03:19:36;1.90;99.90
22996;DHT22;11664;49.774;8.650;2024-01-30T03:22:07;1.80;99.90
22996;DHT22;11664;49.774;8.650;2024-01-30T03:24:33;1.90;99.90
22996;DHT22;11664;49.774;8.650;2024-01-30T03:27:08;1.80;99.90
22996;DHT22;11664;49.774;8.650;2024-01-30T03:29:34;1.80;99.90
22996;DHT22;11664;49.774;8.650;2024-01-30T03:32:08;1.80;99.90
22996;DHT22;11664;49.774;8.650;2024-01-30T03:34:43;1.70;99.90
22996;DHT22;11664;49.774;8.650;2024-01-30T03:37:15;1.80;99.90
22996;DHT22;11664;49.774;8.650;2024-01-30T03:39:43;1.70;99.90
22996;DHT22;11664;49.774;8.650;2024-01-30T03:42:09;1.60;99.90
22996;DHT22;11664;49.774;8.650;2024-01-30T03:44:43;1.60;99.90
22996;DHT22;11664;49.774;8.650;2024-01-30T03:47:09;1.60;99.90
22996;DHT22;11664;49.774;8.650;2024-01-30T03:49:34;1.60;99.90
22996;DHT22;11664;49.774;8.650;2024-01-30T03:52:09;1.50;99.90
22996;DHT22;11664;49.774;8.650;2024-01-30T03:54:38;1.70;99.90
22996;DHT22;11664;49.774;8.650;2024-01-30T03:57:22;1.80;99.90
22996;DHT22;11664;49.774;8.650;2024-01-30T03:59:47;1.70;99.90
22996;DHT22;11664;49.774;8.650;2024-01-30T04:02:13;1.70;99.90
22996;DHT22;11664;49.774;8.650;2024-01-30T04:04:38;1.70;99.90
22996;DHT22;11664;49.774;8.650;2024-01-30T04:07:09;1.70;99.90
22996;DHT22;11664;49.774;8.650;2024-01-30T04:09:41;1.60;99.90
22996;DHT22;11664;49.774;8.650;2024-01-30T04:12:07;1.60;99.90
22996;DHT22;11664;49.774;8.650;2024-01-30T04:14:39;1.60;99.90
22996;DHT22;11664;49.774;8.650;2024-01-30T04:17:05;1.60;99.90
22996;DHT22;11664;49.774;8.650;2024-01-30T04:19:30;1.60;99.90
22996;DHT22;11664;49.774;8.650;2024-01-30T04:21:56;1.60;99.90
22996;DHT22;11664;49.774;8.650;2024-01-30T04:24:21;1.50;99.90
22996;DHT22;11664;49.774;8.650;2024-01-30T04:26:50;1.50;99.90
22996;DHT22;11664;49.774;8.650;2024-01-30T04:29:21;1.60;99.90
22996;DHT22;11664;49.774;8.650;2024-01-30T04:31:47;1.70;99.90
22996;DHT22;11664;49.774;8.650;2024-01-30T04:34:13;1.70;99.90
22996;DHT22;11664;49.774;8.650;2024-01-30T04:36:39;1.70;99.90
22996;DHT22;11664;49.774;8.650;2024-01-30T04:39:05;1.80;99.90
22996;DHT22;11664;49.774;8.650;2024-01-30T04:41:30;1.80;99.90
22996;DHT22;11664;49.774;8.650;2024-01-30T04:44:00;1.80;99.90
22996;DHT22;11664;49.774;8.650;2024-01-30T04:46:26;1.80;99.90
22996;DHT22;11664;49.774;8.650;2024-01-30T04:48:51;1.80;99.90
22996;DHT22;11664;49.774;8.650;2024-01-30T04:51:17;1.80;99.90
22996;DHT22;11664;49.774;8.650;2024-01-30T04:53:42;1.80;99.90
22996;DHT22;11664;49.774;8.650;2024-01-30T04:56:14;1.80;99.90
22996;DHT22;11664;49.774;8.650;2024-01-30T04:58:42;1.80;99.90
22996;DHT22;11664;49.774;8.650;2024-01-30T05:01:08;1.90;99.90
22996;DHT22;11664;49.774;8.650;2024-01-30T05:03:34;2.00;99.90
22996;DHT22;11664;49.774;8.650;2024-01-30T05:06:24;2.00;99.90
22996;DHT22;11664;49.774;8.650;2024-01-30T05:08:51;2.00;99.90
22996;DHT22;11664;49.774;8.650;2024-01-30T05:14:39;2.20;99.90
22996;DHT22;11664;49.774;8.650;2024-01-30T05:17:10;2.10;99.90
22996;DHT22;11664;49.774;8.650;2024-01-30T05:19:38;2.20;99.90
22996;DHT22;11664;49.774;8.650;2024-01-30T05:22:07;2.20;99.90
22996;DHT22;11664;49.774;8.650;2024-01-30T05:24:42;2.10;99.90
22996;DHT22;11664;49.774;8.650;2024-01-30T05:27:11;2.00;99.90
22996;DHT22;11664;49.774;8.650;2024-01-30T05:29:47;1.90;99.90
22996;DHT22;11664;49.774;8.650;2024-01-30T05:32:19;1.90;99.90
22996;DHT22;11664;49.774;8.650;2024-01-30T05:34:57;2.00;99.90
22996;DHT22;11664;49.774;8.650;2024-01-30T05:37:22;2.00;99.90
22996;DHT22;11664;49.774;8.650;2024-01-30T05:40:02;2.00;99.90
22996;DHT22;11664;49.774;8.650;2024-01-30T05:42:31;1.90;99.90
22996;DHT22;11664;49.774;8.650;2024-01-30T05:45:06;2.00;99.90
22996;DHT22;11664;49.774;8.650;2024-01-30T05:47:35;2.00;99.90
22996;DHT22;11664;49.774;8.650;2024-01-30T05:50:03;1.90;99.90
22996;DHT22;11664;49.774;8.650;2024-01-30T05:52:35;1.80;99.90
22996;DHT22;11664;49.774;8.650;2024-01-30T05:55:03;1.90;99.90
22996;DHT22;11664;49.774;8.650;2024-01-30T05:57:29;2.00;99.90
22996;DHT22;11664;49.774;8.650;2024-01-30T06:00:00;2.00;99.90
22996;DHT22;11664;49.774;8.650;2024-01-30T06:02:32;1.90;99.90
22996;DHT22;11664;49.774;8.650;2024-01-30T06:05:07;2.10;99.90
22996;DHT22;11664;49.774;8.650;2024-01-30T06:07:35;2.10;99.90
22996;DHT22;11664;49.774;8.650;2024-01-30T06:10:04;2.00;99.90
22996;DHT22;11664;49.774;8.650;2024-01-30T06:12:52;2.20;99.90
22996;DHT22;11664;49.774;8.650;2024-01-30T06:15:20;2.20;99.90
22996;DHT22;11664;49.774;8.650;2024-01-30T06:17:46;2.20;99.90
22996;DHT22;11664;49.774;8.650;2024-01-30T06:20:17;2.20;99.90
22996;DHT22;11664;49.774;8.650;2024-01-30T06:22:43;2.20;99.90
22996;DHT22;11664;49.774;8.650;2024-01-30T06:25:27;2.20;99.90
22996;DHT22;11664;49.774;8.650;2024-01-30T06:27:53;2.30;99.90
22996;DHT22;11664;49.774;8.650;2024-01-30T06:30:18;2.30;99.90
22996;DHT22;11664;49.774;8.650;2024-01-30T06:32:53;2.30;99.90
22996;DHT22;11664;49.774;8.650;2024-01-30T06:35:19;2.30;99.90
22996;DHT22;11664;49.774;8.650;2024-01-30T06:37:44;2.30;99.90
22996;DHT22;11664;49.774;8.650;2024-01-30T06:40:16;2.30;99.90
22996;DHT22;11664;49.774;8.650;2024-01-30T06:42:41;2.40;99.90
22996;DHT22;11664;49.774;8.650;2024-01-30T06:45:10;2.50;99.90
22996;DHT22;11664;49.774;8.650;2024-01-30T06:47:35;2.40;99.90
22996;DHT22;11664;49.774;8.650;2024-01-30T06:50:04;2.40;99.90
22996;DHT22;11664;49.774;8.650;2024-01-30T06:52:30;2.50;99.90
22996;DHT22;11664;49.774;8.650;2024-01-30T06:54:59;2.40;99.90
22996;DHT22;11664;49.774;8.650;2024-01-30T06:57:24;2.50;99.90
22996;DHT22;11664;49.774;8.650;2024-01-30T07:00:02;2.70;99.90
22996;DHT22;11664;49.774;8.650;2024-01-30T07:02:31;2.70;99.90
22996;DHT22;11664;49.774;8.650;2024-01-30T07:04:57;2.60;99.90
22996;DHT22;11664;49.774;8.650;2024-01-30T07:07:25;2.60;99.90
22996;DHT22;11664;49.774;8.650;2024-01-30T07:10:10;2.70;99.90
22996;DHT22;11664;49.774;8.650;2024-01-30T07:12:38;2.70;99.90
22996;DHT22;11664;49.774;8.650;2024-01-30T07:15:07;2.60;99.90
22996;DHT22;11664;49.774;8.650;2024-01-30T07:20:58;2.90;99.90
22996;DHT22;11664;49.774;8.650;2024-01-30T07:23:29;2.90;99.90
22996;DHT22;11664;49.774;8.650;2024-01-30T07:25:55;2.90;99.90
22996;DHT22;11664;49.774;8.650;2024-01-30T07:28:27;2.90;99.90
22996;DHT22;11664;49.774;8.650;2024-01-30T07:31:04;2.90;99.90
22996;DHT22;11664;49.774;8.650;2024-01-30T07:33:31;3.00;99.90
22996;DHT22;11664;49.774;8.650;2024-01-30T07:35:57;3.10;99.90
22996;DHT22;11664;49.774;8.650;2024-01-30T07:38:25;3.20;99.90
22996;DHT22;11664;49.774;8.650;2024-01-30T07:40:54;3.20;99.90
22996;DHT22;11664;49.774;8.650;2024-01-30T07:43:20;3.30;99.90
22996;DHT22;11664;49.774;8.650;2024-01-30T07:45:48;3.20;99.90
22996;DHT22;11664;49.774;8.650;2024-01-30T07:48:14;3.30;99.90
22996;DHT22;11664;49.774;8.650;2024-01-30T07:50:46;3.20;99.90
22996;DHT22;11664;49.774;8.650;2024-01-30T07:53:11;3.30;99.90
22996;DHT22;11664;49.774;8.650;2024-01-30T07:55:37;3.30;99.90
22996;DHT22;11664;49.774;8.650;2024-01-30T07:58:08;3.40;99.90
22996;DHT22;11664;49.774;8.650;2024-01-30T08:00:35;3.60;99.90
22996;DHT22;11664;49.774;8.650;2024-01-30T08:03:04;3.50;99.90
22996;DHT22;11664;49.774;8.650;2024-01-30T08:05:30;3.40;99.90
22996;DHT22;11664;49.774;8.650;2024-01-30T08:07:56;3.40;99.90
22996;DHT22;11664;49.774;8.650;2024-01-30T08:10:23;3.30;99.90
22996;DHT22;11664;49.774;8.650;2024-01-30T08:12:49;3.20;99.90
22996;DHT22;11664;49.774;8.650;2024-01-30T08:15:23;3.20;99.90
22996;DHT22;11664;49.774;8.650;2024-01-30T08:17:58;3.30;99.90
22996;DHT22;11664;49.774;8.650;2024-01-30T08:20:24;3.40;99.90
22996;DHT22;11664;49.774;8.650;2024-01-30T08:22:56;3.60;99.90
22996;DHT22;11664;49.774;8.650;2024-01-30T08:25:24;3.70;99.90
22996;DHT22;11664;49.774;8.650;2024-01-30T08:27:50;3.80;99.90
22996;DHT22;11664;49.774;8.650;2024-01-30T08:30:16;3.90;99.90
22996;DHT22;11664;49.774;8.650;2024-01-30T08:32:48;4.10;99.90
22996;DHT22;11664;49.774;8.650;2024-01-30T08:35:19;4.20;99.90
22996;DHT22;11664;49.774;8.650;2024-01-30T08:37:51;4.40;99.90
22996;DHT22;11664;49.774;8.650;2024-01-30T08:40:16;4.50;99.90
22996;DHT22;11664;49.774;8.650;2024-01-30T08:42:42;4.60;99.90
22996;DHT22;11664;49.774;8.650;2024-01-30T08:45:11;4.80;99.90
22996;DHT22;11664;49.774;8.650;2024-01-30T08:47:42;4.90;99.90
22996;DHT22;11664;49.774;8.650;2024-01-30T08:50:08;4.90;99.90
22996;DHT22;11664;49.774;8.650;2024-01-30T08:52:40;5.00;99.90
22996;DHT22;11664;49.774;8.650;2024-01-30T08:55:05;5.10;99.90
22996;DHT22;11664;49.774;8.650;2024-01-30T08:57:31;5.10;99.90
22996;DHT22;11664;49.774;8.650;2024-01-30T09:00:15;5.30;99.90
22996;DHT22;11664;49.774;8.650;2024-01-30T09:02:47;5.30;99.90
22996;DHT22;11664;49.774;8.650;2024-01-30T09:05:16;5.40;99.90
22996;DHT22;11664;49.774;8.650;2024-01-30T09:07:51;5.40;99.90
22996;DHT22;11664;49.774;8.650;2024-01-30T09:10:22;5.30;99.90
22996;DHT22;11664;49.774;8.650;2024-01-30T09:12:54;5.50;99.90
22996;DHT22;11664;49.774;8.650;2024-01-30T09:15:26;5.40;99.90
22996;DHT22;11664;49.774;8.650;2024-01-30T09:17:51;5.50;99.90
22996;DHT22;11664;49.774;8.650;2024-01-30T09:20:17;5.60;99.90
22996;DHT22;11664;49.774;8.650;2024-01-30T09:22:42;5.70;99.90
22996;DHT22;11664;49.774;8.650;2024-01-30T09:25:08;5.80;99.90
22996;DHT22;11664;49.774;8.650;2024-01-30T09:27:34;6.00;99.90
22996;DHT22;11664;49.774;8.650;2024-01-30T09:30:02;6.10;99.90
22996;DHT22;11664;49.774;8.650;2024-01-30T09:32:47;6.30;99.90
22996;DHT22;11664;49.774;8.650;2024-01-30T09:35:15;6.50;99.90
22996;DHT22;11664;49.774;8.650;2024-01-30T09:37:44;6.60;99.90
22996;DHT22;11664;49.774;8.650;2024-01-30T09:40:10;6.80;99.90
22996;DHT22;11664;49.774;8.650;2024-01-30T09:42:39;6.80;99.90
22996;DHT22;11664;49.774;8.650;2024-01-30T09:45:10;7.00;99.90
22996;DHT22;11664;49.774;8.650;2024-01-30T09:47:42;7.00;99.90
22996;DHT22;11664;49.774;8.650;2024-01-30T09:50:09;7.00;99.90
22996;DHT22;11664;49.774;8.650;2024-01-30T09:52:35;7.10;99.90
22996;DHT22;11664;49.774;8.650;2024-01-30T09:55:01;7.10;99.90
22996;DHT22;11664;49.774;8.650;2024-01-30T09:57:27;7.20;99.90
22996;DHT22;11664;49.774;8.650;2024-01-30T09:59:56;7.30;99.90
22996;DHT22;11664;49.774;8.650;2024-01-30T10:02:22;7.40;99.90
22996;DHT22;11664;49.774;8.650;2024-01-30T10:04:57;7.60;99.90
22996;DHT22;11664;49.774;8.650;2024-01-30T10:07:33;7.90;99.90
22996;DHT22;11664;49.774;8.650;2024-01-30T10:10:02;8.00;99.90
22996;DHT22;11664;49.774;8.650;2024-01-30T10:12:43;8.20;99.90
22996;DHT22;11664;49.774;8.650;2024-01-30T10:15:13;8.40;99.90
22996;DHT22;11664;49.774;8.650;2024-01-30T10:17:51;8.60;99.90
22996;DHT22;11664;49.774;8.650;2024-01-30T10:20:17;8.70;99.90
22996;DHT22;11664;49.774;8.650;2024-01-30T10:22:50;8.90;99.90
22996;DHT22;11664;49.774;8.650;2024-01-30T10:25:15;8.90;99.90
22996;DHT22;11664;49.774;8.650;2024-01-30T10:27:45;9.10;99.90
22996;DHT22;11664;49.774;8.650;2024-01-30T10:30:10;9.10;99.90
22996;DHT22;11664;49.774;8.650;2024-01-30T10:32:36;9.20;99.90
22996;DHT22;11664;49.774;8.650;2024-01-30T10:35:01;9.40;99.90
22996;DHT22;11664;49.774;8.650;2024-01-30T10:37:29;9.40;99.90
22996;DHT22;11664;49.774;8.650;2024-01-30T10:40:02;9.50;99.90
22996;DHT22;11664;49.774;8.650;2024-01-30T10:42:31;9.60;99.90
22996;DHT22;11664;49.774;8.650;2024-01-30T10:45:08;9.70;99.90
22996;DHT22;11664;49.774;8.650;2024-01-30T10:47:35;9.90;99.90
22996;DHT22;11664;49.774;8.650;2024-01-30T10:50:11;9.90;99.90
22996;DHT22;11664;49.774;8.650;2024-01-30T10:52:41;9.90;99.90
22996;DHT22;11664;49.774;8.650;2024-01-30T10:55:07;9.90;99.90
22996;DHT22;11664;49.774;8.650;2024-01-30T10:57:37;9.90;99.90
22996;DHT22;11664;49.774;8.650;2024-01-30T11:00:14;9.90;99.90
22996;DHT22;11664;49.774;8.650;2024-01-30T11:02:56;10.00;99.90
22996;DHT22;11664;49.774;8.650;2024-01-30T11:05:33;10.10;99.90
22996;DHT22;11664;49.774;8.650;2024-01-30T11:11:12;10.20;99.90
22996;DHT22;11664;49.774;8.650;2024-01-30T11:13:38;10.20;99.90
22996;DHT22;11664;49.774;8.650;2024-01-30T11:16:11;10.20;99.90
22996;DHT22;11664;49.774;8.650;2024-01-30T11:18:39;10.10;99.90
22996;DHT22;11664;49.774;8.650;2024-01-30T11:21:05;10.10;99.90
22996;DHT22;11664;49.774;8.650;2024-01-30T11:23:38;10.30;99.90
22996;DHT22;11664;49.774;8.650;2024-01-30T11:26:16;10.40;99.90
22996;DHT22;11664;49.774;8.650;2024-01-30T11:28:43;10.70;99.90
22996;DHT22;11664;49.774;8.650;2024-01-30T11:31:23;10.60;99.90
22996;DHT22;11664;49.774;8.650;2024-01-30T11:33:56;10.20;99.90
22996;DHT22;11664;49.774;8.650;2024-01-30T11:36:35;10.30;99.90
22996;DHT22;11664;49.774;8.650;2024-01-30T11:39:15;10.60;99.90
22996;DHT22;11664;49.774;8.650;2024-01-30T11:41:46;10.80;99.90
22996;DHT22;11664;49.774;8.650;2024-01-30T11:44:11;10.90;99.90
22996;DHT22;11664;49.774;8.650;2024-01-30T11:46:48;10.90;99.90
22996;DHT22;11664;49.774;8.650;2024-01-30T11:49:17;10.80;99.90
22996;DHT22;11664;49.774;8.650;2024-01-30T11:51:43;10.70;99.90
22996;DHT22;11664;49.774;8.650;2024-01-30T11:54:11;10.60;99.90
22996;DHT22;11664;49.774;8.650;2024-01-30T11:56:43;10.70;99.90
22996;DHT22;11664;49.774;8.650;2024-01-30T11:59:09;10.60;99.90
22996;DHT22;11664;49.774;8.650;2024-01-30T12:01:40;10.60;99.90
22996;DHT22;11664;49.774;8.650;2024-01-30T12:04:09;10.70;99.90
22996;DHT22;11664;49.774;8.650;2024-01-30T12:07:03;10.80;99.90
22996;DHT22;11664;49.774;8.650;2024-01-30T12:09:29;10.90;99.90
22996;DHT22;11664;49.774;8.650;2024-01-30T12:11:54;11.00;99.90
22996;DHT22;11664;49.774;8.650;2024-01-30T12:14:26;11.10;99.90
22996;DHT22;11664;49.774;8.650;2024-01-30T12:16:52;11.30;99.90
22996;DHT22;11664;49.774;8.650;2024-01-30T12:19:36;11.40;99.90
22996;DHT22;11664;49.774;8.650;2024-01-30T12:22:17;11.60;99.90
22996;DHT22;11664;49.774;8.650;2024-01-30T12:24:52;11.90;99.90
22996;DHT22;11664;49.774;8.650;2024-01-30T12:27:18;12.10;99.90
22996;DHT22;11664;49.774;8.650;2024-01-30T12:29:44;12.20;99.90
22996;DHT22;11664;49.774;8.650;2024-01-30T12:32:15;11.90;99.90
22996;DHT22;11664;49.774;8.650;2024-01-30T12:34:43;11.80;99.90
22996;DHT22;11664;49.774;8.650;2024-01-30T12:37:15;11.70;99.90
22996;DHT22;11664;49.774;8.650;2024-01-30T12:39:47;11.40;99.90
22996;DHT22;11664;49.774;8.650;2024-01-30T12:42:27;11.50;99.90
22996;DHT22;11664;49.774;8.650;2024-01-30T12:44:53;11.40;99.90
22996;DHT22;11664;49.774;8.650;2024-01-30T12:47:28;11.40;99.90
22996;DHT22;11664;49.774;8.650;2024-01-30T12:49:57;11.40;99.90
22996;DHT22;11664;49.774;8.650;2024-01-30T12:52:29;11.30;99.90
22996;DHT22;11664;49.774;8.650;2024-01-30T12:54:54;11.20;99.90
22996;DHT22;11664;49.774;8.650;2024-01-30T12:57:20;11.30;99.90
22996;DHT22;11664;49.774;8.650;2024-01-30T12:59:46;10.90;99.90
22996;DHT22;11664;49.774;8.650;2024-01-30T13:02:15;10.80;99.90
22996;DHT22;11664;49.774;8.650;2024-01-30T13:05:03;11.00;99.90
22996;DHT22;11664;49.774;8.650;2024-01-30T13:07:32;11.00;99.90
22996;DHT22;11664;49.774;8.650;2024-01-30T13:10:30;11.00;99.90
22996;DHT22;11664;49.774;8.650;2024-01-30T13:13:02;11.10;99.90
22996;DHT22;11664;49.774;8.650;2024-01-30T13:15:34;11.30;99.90
22996;DHT22;11664;49.774;8.650;2024-01-30T13:18:00;11.60;99.90
22996;DHT22;11664;49.774;8.650;2024-01-30T13:20:30;11.60;99.90
22996;DHT22;11664;49.774;8.650;2024-01-30T13:22:55;11.70;99.90
22996;DHT22;11664;49.774;8.650;2024-01-30T13:25:21;12.00;99.90
22996;DHT22;11664;49.774;8.650;2024-01-30T13:27:46;12.10;99.90
22996;DHT22;11664;49.774;8.650;2024-01-30T13:30:12;12.00;99.90
22996;DHT22;11664;49.774;8.650;2024-01-30T13:32:38;12.20;99.90
22996;DHT22;11664;49.774;8.650;2024-01-30T13:35:04;12.40;99.90
22996;DHT22;11664;49.774;8.650;2024-01-30T13:37:29;12.40;99.90
22996;DHT22;11664;49.774;8.650;2024-01-30T13:39:55;12.20;99.90
22996;DHT22;11664;49.774;8.650;2024-01-30T13:42:22;12.00;99.90
22996;DHT22;11664;49.774;8.650;2024-01-30T13:44:48;12.10;99.90
22996;DHT22;11664;49.774;8.650;2024-01-30T13:47:13;12.00;99.90
22996;DHT22;11664;49.774;8.650;2024-01-30T13:49:39;12.10;99.90
22996;DHT22;11664;49.774;8.650;2024-01-30T13:52:05;12.00;99.90
22996;DHT22;11664;49.774;8.650;2024-01-30T13:54:30;11.90;99.90
22996;DHT22;11664;49.774;8.650;2024-01-30T13:56:56;11.80;99.90
22996;DHT22;11664;49.774;8.650;2024-01-30T13:59:22;11.90;99.90
22996;DHT22;11664;49.774;8.650;2024-01-30T14:01:49;11.90;99.90
22996;DHT22;11664;49.774;8.650;2024-01-30T14:04:15;11.90;99.90
22996;DHT22;11664;49.774;8.650;2024-01-30T14:06:41;11.90;99.90
22996;DHT22;11664;49.774;8.650;2024-01-30T14:09:06;11.70;99.90
22996;DHT22;11664;49.774;8.650;2024-01-30T14:11:32;11.70;99.90
22996;DHT22;11664;49.774;8.650;2024-01-30T14:13:57;11.60;99.90
22996;DHT22;11664;49.774;8.650;2024-01-30T14:16:23;11.50;99.90
22996;DHT22;11664;49.774;8.650;2024-01-30T14:18:49;11.50;99.90
22996;DHT22;11664;49.774;8.650;2024-01-30T14:21:15;11.40;99.90
22996;DHT22;11664;49.774;8.650;2024-01-30T14:23:41;11.40;99.90
22996;DHT22;11664;49.774;8.650;2024-01-30T14:26:06;11.40;99.90
22996;DHT22;11664;49.774;8.650;2024-01-30T14:28:32;11.30;99.90
22996;DHT22;11664;49.774;8.650;2024-01-30T14:30:57;11.30;99.90
22996;DHT22;11664;49.774;8.650;2024-01-30T14:33:23;11.30;99.90
22996;DHT22;11664;49.774;8.650;2024-01-30T14:35:48;11.30;99.90
22996;DHT22;11664;49.774;8.650;2024-01-30T14:38:14;11.30;99.90
22996;DHT22;11664;49.774;8.650;2024-01-30T14:40:40;11.20;99.90
22996;DHT22;11664;49.774;8.650;2024-01-30T14:43:05;11.20;99.90
22996;DHT22;11664;49.774;8.650;2024-01-30T14:45:31;11.20;99.90
22996;DHT22;11664;49.774;8.650;2024-01-30T14:47:58;11.20;99.90
22996;DHT22;11664;49.774;8.650;2024-01-30T14:50:23;11.10;99.90
22996;DHT22;11664;49.774;8.650;2024-01-30T14:52:49;11.10;99.90
22996;DHT22;11664;49.774;8.650;2024-01-30T14:55:14;11.00;99.90
22996;DHT22;11664;49.774;8.650;2024-01-30T14:57:40;10.90;99.90
22996;DHT22;11664;49.774;8.650;2024-01-30T15:00:08;10.90;99.90
22996;DHT22;11664;49.774;8.650;2024-01-30T15:02:34;10.80;99.90
22996;DHT22;11664;49.774;8.650;2024-01-30T15:05:00;10.80;99.90
22996;DHT22;11664;49.774;8.650;2024-01-30T15:07:26;10.70;99.90
22996;DHT22;11664;49.774;8.650;2024-01-30T15:09:53;10.70;99.90
22996;DHT22;11664;49.774;8.650;2024-01-30T15:12:18;10.50;99.90
22996;DHT22;11664;49.774;8.650;2024-01-30T15:14:44;10.50;99.90
22996;DHT22;11664;49.774;8.650;2024-01-30T15:17:19;10.50;99.90
22996;DHT22;11664;49.774;8.650;2024-01-30T15:19:46;10.30;99.90
22996;DHT22;11664;49.774;8.650;2024-01-30T15:22:12;10.30;99.90
22996;DHT22;11664;49.774;8.650;2024-01-30T15:24:38;10.30;99.90
22996;DHT22;11664;49.774;8.650;2024-01-30T15:27:04;10.20;99.90
22996;DHT22;11664;49.774;8.650;2024-01-30T15:29:30;10.20;99.90
22996;DHT22;11664;49.774;8.650;2024-01-30T15:31:55;10.10;99.90
22996;DHT22;11664;49.774;8.650;2024-01-30T15:34:20;10.20;99.90
22996;DHT22;11664;49.774;8.650;2024-01-30T15:36:46;10.20;99.90
22996;DHT22;11664;49.774;8.650;2024-01-30T15:39:12;10.20;99.90
22996;DHT22;11664;49.774;8.650;2024-01-30T15:41:40;10.20;99.90
22996;DHT22;11664;49.774;8.650;2024-01-30T15:44:06;10.20;99.90
22996;DHT22;11664;49.774;8.650;2024-01-30T15:46:32;10.10;99.90
22996;DHT22;11664;49.774;8.650;2024-01-30T15:48:57;10.10;99.90
22996;DHT22;11664;49.774;8.650;2024-01-30T15:51:23;10.10;99.90
22996;DHT22;11664;49.774;8.650;2024-01-30T15:53:50;10.10;99.90
22996;DHT22;11664;49.774;8.650;2024-01-30T15:56:15;10.00;99.90
22996;DHT22;11664;49.774;8.650;2024-01-30T15:58:41;10.00;99.90
22996;DHT22;11664;49.774;8.650;2024-01-30T16:01:07;10.00;99.90
22996;DHT22;11664;49.774;8.650;2024-01-30T16:03:32;10.00;99.90
22996;DHT22;11664;49.774;8.650;2024-01-30T16:05:58;10.00;99.90
22996;DHT22;11664;49.774;8.650;2024-01-30T16:08:23;10.00;99.90